Time;durP1;ratioP1;P1;durP2;ratioP2;P2;SDS_P1;SDS_P2;PMS_P1;PMS_P2;Temp;Humidity;BMP_temperature;BMP_pressure;BME280_temperature;BME280_humidity;BME280_pressure;Samples;Min_cycle;Max_cycle;Signal;HPM_P1;HPM_P2
2022/08/02 00:01:42;;;;;;;;;;;;;;;21.93;60.88;100443.91;5025213;28;19925;-85
2022/08/02 00:04:09;;;;;;;;;;;;;;;21.87;61.00;100445.72;5037011;28;19963;-86
2022/08/02 00:06:38;;;;;;;;;;;;;;;21.84;60.97;100448.09;5034173;28;19964;-88
2022/08/02 00:09:04;;;;;;;;;;;;;;;21.84;61.18;100446.19;5038914;28;19917;-88
2022/08/02 00:11:29;;;;;;;;;;;;;;;21.84;60.84;100443.44;5030445;28;20446;-85
2022/08/02 00:13:54;;;;;;;;;;;;;;;21.76;60.98;100445.75;5026911;28;19921;-87
2022/08/02 00:16:20;;;;;;;;;;;;;;;21.73;60.65;100441.59;5030483;28;20379;-86
2022/08/02 00:18:48;;;;;;;;;;;;;;;21.77;60.09;100440.00;5035856;28;19921;-84
2022/08/02 00:21:14;;;;;;;;;;;;;;;21.79;59.90;100445.25;5038370;28;19921;-87
2022/08/02 00:23:44;;;;;;;;;;;;;;;21.60;60.32;100445.38;5029853;28;19916;-86
2022/08/02 00:26:11;;;;;;;;;;;;;;;21.64;60.28;100446.59;5044171;28;19975;-87
2022/08/02 00:28:37;;;;;;;;;;;;;;;21.61;60.23;100448.94;5041267;28;19974;-85
2022/08/02 00:31:05;;;;;;;;;;;;;;;21.71;59.38;100452.75;5031327;28;20043;-86
2022/08/02 00:33:31;;;;;;;;;;;;;;;21.69;59.38;100449.44;5032781;28;20304;-87
2022/08/02 00:35:57;;;;;;;;;;;;;;;21.71;59.60;100450.03;5039317;28;19963;-86
2022/08/02 00:38:23;;;;;;;;;;;;;;;21.69;58.71;100446.69;5034112;28;19921;-85
2022/08/02 00:40:49;;;;;;;;;;;;;;;21.81;59.08;100454.88;5038422;28;20304;-86
2022/08/02 00:43:14;;;;;;;;;;;;;;;21.94;58.19;100462.03;5044070;28;19921;-86
2022/08/02 00:45:40;;;;;;;;;;;;;;;21.93;57.37;100463.91;5030603;28;20074;-86
2022/08/02 00:48:05;;;;;;;;;;;;;;;21.97;57.20;100458.78;5038963;28;19952;-85
2022/08/02 00:50:31;;;;;;;;;;;;;;;22.07;56.75;100460.91;5030753;28;19921;-83
2022/08/02 00:52:58;;;;;;;;;;;;;;;22.12;56.51;100466.47;5056013;28;19944;-83
2022/08/02 00:55:24;;;;;;;;;;;;;;;22.18;56.18;100461.97;5037017;28;20431;-86
2022/08/02 00:57:52;;;;;;;;;;;;;;;22.26;56.04;100467.91;5033466;28;19940;-86
2022/08/02 01:00:17;;;;;;;;;;;;;;;22.31;55.99;100470.75;5039975;28;19928;-84
2022/08/02 01:02:43;;;;;;;;;;;;;;;22.30;55.85;100469.06;5031393;28;19924;-86
2022/08/02 01:05:10;;;;;;;;;;;;;;;22.37;55.67;100474.41;5029416;28;19960;-87
2022/08/02 01:07:37;;;;;;;;;;;;;;;22.29;55.90;100470.16;5039551;28;20357;-85
2022/08/02 01:10:03;;;;;;;;;;;;;;;22.33;55.92;100473.22;5015794;28;19921;-86
2022/08/02 01:12:30;;;;;;;;;;;;;;;22.31;56.23;100475.38;5038276;28;20340;-86
2022/08/02 01:14:57;;;;;;;;;;;;;;;22.27;56.39;100469.56;5025249;28;19931;-86
2022/08/02 01:17:25;;;;;;;;;;;;;;;22.22;56.78;100476.84;5016542;28;20156;-86
2022/08/02 01:20:00;;;;;;;;;;;;;;;22.25;56.81;100470.91;5033084;28;19929;-86
2022/08/02 01:22:34;;;;;;;;;;;;;;;22.16;57.31;100472.31;5035975;28;19917;-86
2022/08/02 01:25:14;;;;;;;;;;;;;;;22.12;57.56;100474.69;5026845;28;19921;-87
2022/08/02 01:28:01;;;;;;;;;;;;;;;22.04;57.89;100475.91;5014657;28;20385;-87
2022/08/02 01:30:28;;;;;;;;;;;;;;;22.04;57.79;100470.44;4960057;28;19923;-86
2022/08/02 01:32:54;;;;;;;;;;;;;;;22.02;58.13;100472.56;5027267;28;19925;-85
2022/08/02 01:35:22;;;;;;;;;;;;;;;21.99;58.29;100477.72;5035395;28;19924;-86
2022/08/02 01:37:56;;;;;;;;;;;;;;;21.91;58.41;100467.94;4999808;28;19933;-86
2022/08/02 01:40:31;;;;;;;;;;;;;;;21.84;58.22;100473.56;5039331;28;19929;-86
2022/08/02 01:43:00;;;;;;;;;;;;;;;21.89;58.16;100479.16;5046414;28;19971;-86
2022/08/02 01:45:29;;;;;;;;;;;;;;;21.90;57.92;100480.81;5035632;28;19921;-86
2022/08/02 01:48:05;;;;;;;;;;;;;;;21.85;57.88;100471.66;5024542;28;19921;-86
2022/08/02 01:50:32;;;;;;;;;;;;;;;21.88;57.70;100468.44;5042579;28;19925;-86
2022/08/02 01:53:01;;;;;;;;;;;;;;;21.88;57.18;100465.69;5037717;28;19916;-88
2022/08/02 01:55:29;;;;;;;;;;;;;;;21.87;57.10;100470.34;5038039;28;19983;-87
2022/08/02 01:57:57;;;;;;;;;;;;;;;21.76;57.44;100467.63;5047065;28;19921;-85
2022/08/02 02:00:24;;;;;;;;;;;;;;;21.79;57.16;100462.50;5045526;28;20016;-86
2022/08/02 02:02:54;;;;;;;;;;;;;;;21.83;56.87;100466.44;5032143;28;19925;-86
2022/08/02 02:05:26;;;;;;;;;;;;;;;21.80;56.81;100466.91;5037611;28;19940;-86
2022/08/02 02:07:52;;;;;;;;;;;;;;;21.75;57.00;100469.53;5035308;28;19928;-87
2022/08/02 02:10:25;;;;;;;;;;;;;;;21.75;56.89;100472.28;5034027;28;19920;-87
2022/08/02 02:12:55;;;;;;;;;;;;;;;21.64;57.30;100475.84;5028039;28;19925;-88
2022/08/02 02:15:20;;;;;;;;;;;;;;;21.66;57.12;100473.72;5024759;28;19971;-87
2022/08/02 02:17:45;;;;;;;;;;;;;;;21.66;57.24;100479.19;5014502;28;20405;-86
2022/08/02 02:20:15;;;;;;;;;;;;;;;21.69;57.34;100479.53;5017175;28;19920;-87
2022/08/02 02:22:42;;;;;;;;;;;;;;;21.69;57.41;100475.97;5024849;28;19924;-87
2022/08/02 02:25:07;;;;;;;;;;;;;;;21.66;57.67;100480.00;5009005;28;20348;-87
2022/08/02 02:27:33;;;;;;;;;;;;;;;21.62;57.82;100478.00;5017334;28;20423;-88
2022/08/02 02:29:58;;;;;;;;;;;;;;;21.57;58.08;100484.16;5024081;28;19925;-87
2022/08/02 02:32:25;;;;;;;;;;;;;;;21.49;58.19;100485.38;5030566;28;19928;-87
2022/08/02 02:34:51;;;;;;;;;;;;;;;21.44;58.48;100481.66;5020200;28;19921;-86
2022/08/02 02:37:21;;;;;;;;;;;;;;;21.39;58.64;100478.78;5031896;28;19932;-87
2022/08/02 02:40:12;;;;;;;;;;;;;;;21.34;58.81;100476.75;5037805;28;19921;-87
2022/08/02 02:42:39;;;;;;;;;;;;;;;21.34;58.76;100486.88;5036962;28;19928;-86
2022/08/02 02:45:09;;;;;;;;;;;;;;;21.23;59.14;100491.25;5029052;28;19924;-87
2022/08/02 02:47:36;;;;;;;;;;;;;;;21.11;59.73;100490.41;5034157;28;20417;-87
2022/08/02 02:50:04;;;;;;;;;;;;;;;21.09;59.70;100498.81;5021734;28;19921;-86
2022/08/02 02:52:31;;;;;;;;;;;;;;;21.05;59.55;100492.19;5032248;28;19931;-86
2022/08/02 02:54:57;;;;;;;;;;;;;;;21.03;59.78;100497.03;5022646;28;20390;-86
2022/08/02 02:57:23;;;;;;;;;;;;;;;20.99;59.76;100493.09;5029104;28;20019;-87
2022/08/02 02:59:49;;;;;;;;;;;;;;;20.89;60.19;100501.88;5026066;28;19944;-87
2022/08/02 03:02:14;;;;;;;;;;;;;;;20.85;59.96;100501.50;5013810;28;20281;-86
2022/08/02 03:04:42;;;;;;;;;;;;;;;20.90;60.11;100502.69;5031376;28;19928;-87
2022/08/02 03:07:11;;;;;;;;;;;;;;;20.80;60.20;100497.78;5039147;28;19921;-87
2022/08/02 03:09:36;;;;;;;;;;;;;;;20.86;60.18;100505.03;5035538;28;19943;-86
2022/08/02 03:12:03;;;;;;;;;;;;;;;20.74;60.28;100499.53;5035253;28;20400;-87
2022/08/02 03:14:28;;;;;;;;;;;;;;;20.87;59.86;100512.19;5031753;28;19975;-87
2022/08/02 03:16:57;;;;;;;;;;;;;;;20.89;59.86;100514.69;5029598;28;20373;-88
2022/08/02 03:19:24;;;;;;;;;;;;;;;20.89;59.86;100507.34;5027641;28;20028;-87
2022/08/02 03:21:54;;;;;;;;;;;;;;;20.91;59.69;100509.81;5027301;28;19928;-86
2022/08/02 03:24:21;;;;;;;;;;;;;;;20.98;59.38;100505.94;5032680;28;20337;-86
2022/08/02 03:26:48;;;;;;;;;;;;;;;20.99;59.45;100502.13;5017214;28;19999;-86
2022/08/02 03:29:15;;;;;;;;;;;;;;;20.94;59.60;100504.72;5026484;28;19923;-87
2022/08/02 03:31:44;;;;;;;;;;;;;;;20.96;59.72;100510.81;5042711;28;19959;-88
2022/08/02 03:34:09;;;;;;;;;;;;;;;21.01;59.59;100510.94;5034034;28;19921;-87
2022/08/02 03:36:34;;;;;;;;;;;;;;;21.06;59.57;100507.50;5040869;28;19983;-87
2022/08/02 03:39:00;;;;;;;;;;;;;;;21.12;59.34;100500.25;5029734;28;19925;-88
2022/08/02 03:41:26;;;;;;;;;;;;;;;21.09;59.31;100512.47;5039378;28;19927;-86
2022/08/02 03:43:53;;;;;;;;;;;;;;;21.10;59.46;100513.34;5029935;28;19921;-87
2022/08/02 03:46:21;;;;;;;;;;;;;;;21.05;59.55;100516.78;5018246;28;20300;-86
2022/08/02 03:48:48;;;;;;;;;;;;;;;21.08;59.73;100521.75;5002738;28;19923;-87
2022/08/02 03:51:15;;;;;;;;;;;;;;;21.15;59.34;100522.50;5024172;28;19921;-86
2022/08/02 03:53:40;;;;;;;;;;;;;;;21.15;59.48;100521.66;5033752;28;20399;-86
2022/08/02 03:56:06;;;;;;;;;;;;;;;21.15;59.48;100519.75;5011898;28;20127;-85
2022/08/02 03:58:32;;;;;;;;;;;;;;;21.18;59.53;100522.00;5014715;28;19975;-85
2022/08/02 04:00:58;;;;;;;;;;;;;;;21.10;59.60;100519.63;5013227;28;19921;-88
2022/08/02 04:03:24;;;;;;;;;;;;;;;21.27;59.34;100533.44;5041879;28;19917;-85
2022/08/02 04:05:52;;;;;;;;;;;;;;;21.33;59.29;100535.25;5023306;28;19928;-87
2022/08/02 04:08:23;;;;;;;;;;;;;;;21.46;58.92;100526.84;5034285;28;19979;-87
2022/08/02 04:13:36;;;;;;;;;;;;;;;21.50;58.72;100516.28;5040629;28;19928;-86
2022/08/02 04:16:04;;;;;;;;;;;;;;;21.47;58.89;100520.31;5041343;28;19925;-86
2022/08/02 04:18:31;;;;;;;;;;;;;;;21.43;58.90;100523.75;5055297;28;19935;-86
2022/08/02 04:20:58;;;;;;;;;;;;;;;21.34;59.38;100525.16;5030346;28;19931;-88
2022/08/02 04:23:25;;;;;;;;;;;;;;;21.43;59.16;100523.75;5018817;28;19921;-88
2022/08/02 04:25:52;;;;;;;;;;;;;;;21.44;59.16;100525.41;5041168;28;19917;-88
2022/08/02 04:28:24;;;;;;;;;;;;;;;21.48;59.29;100523.88;5034844;28;19984;-88
2022/08/02 04:30:50;;;;;;;;;;;;;;;21.50;59.18;100519.00;5026301;28;19925;-86
2022/08/02 04:33:16;;;;;;;;;;;;;;;21.52;59.09;100522.34;5021002;28;19921;-87
2022/08/02 04:35:43;;;;;;;;;;;;;;;21.57;59.27;100519.72;5030192;28;19968;-87
2022/08/02 04:38:32;;;;;;;;;;;;;;;21.62;59.24;100521.75;5042070;28;20016;-86
2022/08/02 04:41:12;;;;;;;;;;;;;;;21.70;59.04;100514.03;5041777;28;19921;-87
2022/08/02 04:43:39;;;;;;;;;;;;;;;21.77;59.12;100522.09;5038198;28;19925;-87
2022/08/02 04:46:07;;;;;;;;;;;;;;;21.85;58.65;100513.53;5038022;28;20400;-87
2022/08/02 04:48:33;;;;;;;;;;;;;;;22.03;58.48;100504.38;5024713;28;19925;-87
2022/08/02 04:51:04;;;;;;;;;;;;;;;22.10;58.25;100507.81;5054873;28;19978;-86
2022/08/02 04:53:35;;;;;;;;;;;;;;;22.33;57.62;100523.34;5053690;28;19932;-88
2022/08/02 04:56:10;;;;;;;;;;;;;;;22.47;57.31;100517.59;5047190;28;19980;-86
2022/08/02 04:58:35;;;;;;;;;;;;;;;22.68;56.48;100513.38;5046988;28;19921;-88
2022/08/02 05:01:02;;;;;;;;;;;;;;;22.73;56.26;100506.09;5029446;28;19982;-87
2022/08/02 05:03:34;;;;;;;;;;;;;;;23.02;55.91;100513.50;5037311;28;19929;-87
2022/08/02 05:11:17;;;;;;;;;;;;;;;23.86;53.69;100508.00;5547064;22;19936;-88
2022/08/02 05:13:47;;;;;;;;;;;;;;;23.94;53.76;100513.03;5078784;28;19927;-90
2022/08/02 05:16:15;;;;;;;;;;;;;;;24.20;52.79;100511.47;5070487;28;19925;-88
2022/08/02 05:18:43;;;;;;;;;;;;;;;24.40;52.19;100507.34;5054516;28;20411;-86
2022/08/02 05:21:12;;;;;;;;;;;;;;;24.58;51.92;100515.28;5054017;28;19921;-87
2022/08/02 05:24:15;;;;;;;;;;;;;;;24.79;51.02;100515.47;5042642;28;19917;-85
2022/08/02 05:26:45;;;;;;;;;;;;;;;24.94;50.36;100518.41;5075169;28;19921;-85
2022/08/02 05:29:15;;;;;;;;;;;;;;;24.93;50.74;100519.47;5073069;28;20069;-84
2022/08/02 05:31:50;;;;;;;;;;;;;;;25.22;50.04;100533.81;5050361;28;19924;-85
2022/08/02 05:34:23;;;;;;;;;;;;;;;25.47;48.75;100535.97;5055721;28;20163;-87
2022/08/02 05:36:50;;;;;;;;;;;;;;;25.56;49.09;100539.03;5055383;28;19960;-85
2022/08/02 05:39:15;;;;;;;;;;;;;;;25.31;49.82;100534.19;5025845;28;19921;-84
2022/08/02 05:41:44;;;;;;;;;;;;;;;25.00;50.61;100544.84;5054490;28;19920;-84
2022/08/02 05:44:11;;;;;;;;;;;;;;;25.46;49.44;100536.22;5036842;28;19974;-84
2022/08/02 05:46:37;;;;;;;;;;;;;;;25.62;49.40;100545.44;5056843;28;20007;-84
2022/08/02 05:49:03;;;;;;;;;;;;;;;25.81;48.91;100543.09;5058548;28;19967;-85
2022/08/02 05:51:39;;;;;;;;;;;;;;;26.06;48.07;100545.22;5054713;28;19916;-85
2022/08/02 05:54:27;;;;;;;;;;;;;;;25.99;48.60;100544.59;5071790;28;19956;-84
2022/08/02 05:56:59;;;;;;;;;;;;;;;26.44;47.42;100540.41;5050003;28;20000;-84
2022/08/02 05:59:54;;;;;;;;;;;;;;;26.62;47.13;100534.47;5072717;28;19935;-84
2022/08/02 06:02:25;;;;;;;;;;;;;;;26.99;45.99;100533.41;5054709;28;20400;-82
2022/08/02 06:04:53;;;;;;;;;;;;;;;27.30;45.53;100541.75;5072064;28;20426;-85
2022/08/02 06:07:19;;;;;;;;;;;;;;;27.81;44.92;100544.47;5050657;28;19931;-85
2022/08/02 06:09:44;;;;;;;;;;;;;;;28.18;43.78;100551.63;5036417;28;19929;-84
2022/08/02 06:12:10;;;;;;;;;;;;;;;28.46;42.11;100552.06;5050325;28;19975;-85
2022/08/02 06:14:38;;;;;;;;;;;;;;;28.69;41.78;100550.63;5042623;28;19921;-84
2022/08/02 06:17:03;;;;;;;;;;;;;;;29.12;40.65;100548.97;5073377;28;19956;-86
2022/08/02 06:19:30;;;;;;;;;;;;;;;29.21;40.23;100552.78;5043028;28;19932;-87
2022/08/02 06:22:13;;;;;;;;;;;;;;;29.66;39.40;100559.09;5049857;28;20427;-86
2022/08/02 06:24:41;;;;;;;;;;;;;;;30.01;38.68;100565.41;5053941;28;20032;-87
2022/08/02 06:27:07;;;;;;;;;;;;;;;30.25;37.59;100559.03;5060600;28;20007;-85
2022/08/02 06:29:35;;;;;;;;;;;;;;;30.34;37.48;100556.47;5049890;28;20315;-85
2022/08/02 06:32:02;;;;;;;;;;;;;;;30.43;37.11;100554.69;5075428;28;19927;-84
2022/08/02 06:34:27;;;;;;;;;;;;;;;30.42;37.17;100559.44;5056895;28;20014;-89
2022/08/02 06:37:11;;;;;;;;;;;;;;;30.29;37.17;100554.59;5055674;28;19971;-89
2022/08/02 06:39:59;;;;;;;;;;;;;;;30.34;36.82;100564.78;5066528;28;19989;-88
2022/08/02 06:42:34;;;;;;;;;;;;;;;30.21;37.09;100558.00;5068475;28;19938;-87
2022/08/02 06:45:02;;;;;;;;;;;;;;;30.35;37.04;100547.88;5057463;28;19924;-88
2022/08/02 06:47:29;;;;;;;;;;;;;;;30.70;36.61;100551.31;5079693;28;19928;-89
2022/08/02 06:49:55;;;;;;;;;;;;;;;30.63;36.26;100553.63;5053685;28;19917;-88
2022/08/02 06:52:25;;;;;;;;;;;;;;;30.66;35.27;100555.78;5061118;28;20362;-89
2022/08/02 06:54:56;;;;;;;;;;;;;;;30.71;35.62;100552.94;5058466;28;19995;-88
2022/08/02 06:57:21;;;;;;;;;;;;;;;31.02;35.28;100555.31;5057881;28;20583;-87
2022/08/02 06:59:50;;;;;;;;;;;;;;;31.04;34.69;100569.72;5051964;28;19928;-88
2022/08/02 07:02:18;;;;;;;;;;;;;;;31.11;34.09;100561.81;5058495;28;19923;-86
2022/08/02 07:04:43;;;;;;;;;;;;;;;31.13;34.10;100563.19;5057912;28;19927;-88
2022/08/02 07:07:12;;;;;;;;;;;;;;;31.26;33.68;100564.38;5078089;28;19921;-89
2022/08/02 07:09:41;;;;;;;;;;;;;;;31.17;33.73;100562.59;5080964;28;19920;-87
2022/08/02 07:12:07;;;;;;;;;;;;;;;31.32;33.50;100560.38;5076610;28;20296;-89
2022/08/02 07:14:35;;;;;;;;;;;;;;;31.38;33.58;100552.81;5055501;28;19938;-88
2022/08/02 07:17:00;;;;;;;;;;;;;;;31.57;33.31;100566.69;5075832;28;19917;-87
2022/08/02 07:19:28;;;;;;;;;;;;;;;31.49;33.53;100559.03;5059430;28;20372;-88
2022/08/02 07:22:00;;;;;;;;;;;;;;;31.85;33.04;100558.41;5058580;28;20395;-87
2022/08/02 07:24:27;;;;;;;;;;;;;;;32.05;32.63;100558.03;5050894;28;20417;-88
2022/08/02 07:26:56;;;;;;;;;;;;;;;32.15;32.45;100555.06;5042710;28;20023;-88
2022/08/02 07:29:22;;;;;;;;;;;;;;;32.14;32.18;100570.09;5059342;28;20031;-89
2022/08/02 07:31:49;;;;;;;;;;;;;;;32.35;31.73;100566.91;5057846;28;20427;-89
2022/08/02 07:34:17;;;;;;;;;;;;;;;32.56;31.77;100567.34;5059771;28;20321;-87
2022/08/02 07:36:43;;;;;;;;;;;;;;;32.35;31.58;100575.25;5062677;28;19963;-88
2022/08/02 07:39:11;;;;;;;;;;;;;;;32.49;30.92;100564.94;5077303;28;19977;-88
2022/08/02 07:41:45;;;;;;;;;;;;;;;32.79;30.76;100557.09;5064789;28;19984;-89
2022/08/02 07:44:13;;;;;;;;;;;;;;;32.97;30.69;100564.47;5067699;28;19931;-89
2022/08/02 07:46:43;;;;;;;;;;;;;;;32.71;30.90;100553.09;5059095;28;19927;-87
2022/08/02 07:49:09;;;;;;;;;;;;;;;33.09;30.53;100560.34;5056164;28;20304;-88
2022/08/02 07:51:35;;;;;;;;;;;;;;;33.29;30.21;100564.59;5073114;28;19924;-87
2022/08/02 07:54:10;;;;;;;;;;;;;;;33.58;29.80;100566.97;5041701;28;19925;-86
2022/08/02 07:56:36;;;;;;;;;;;;;;;33.69;29.10;100562.75;5075018;28;19921;-87
2022/08/02 07:59:03;;;;;;;;;;;;;;;33.85;29.05;100571.53;5050774;28;20398;-86
2022/08/02 08:01:29;;;;;;;;;;;;;;;33.41;29.25;100570.41;5072617;28;20240;-87
2022/08/02 08:03:58;;;;;;;;;;;;;;;33.00;29.75;100561.06;5056212;28;20018;-86
2022/08/02 08:06:42;;;;;;;;;;;;;;;32.71;30.31;100567.00;5072448;28;19917;-86
2022/08/02 08:09:09;;;;;;;;;;;;;;;32.65;30.41;100562.69;5072664;28;19943;-86
2022/08/02 08:12:04;;;;;;;;;;;;;;;33.04;30.03;100565.97;5051489;28;19924;-85
2022/08/02 08:14:50;;;;;;;;;;;;;;;33.27;29.27;100562.13;5075469;28;19920;-88
2022/08/02 08:17:28;;;;;;;;;;;;;;;33.10;29.45;100565.59;5075301;28;19931;-85
2022/08/02 08:20:14;;;;;;;;;;;;;;;33.59;29.02;100563.84;5071984;28;20007;-85
2022/08/02 08:22:55;;;;;;;;;;;;;;;34.12;28.44;100558.59;5064443;28;19925;-89
2022/08/02 08:25:22;;;;;;;;;;;;;;;34.70;27.95;100554.66;5045446;28;19948;-91
2022/08/02 08:27:48;;;;;;;;;;;;;;;34.76;27.75;100556.13;5075208;28;20291;-90
2022/08/02 08:30:14;;;;;;;;;;;;;;;35.40;27.15;100558.31;5043424;28;19928;-88
2022/08/02 08:32:40;;;;;;;;;;;;;;;35.69;25.69;100557.63;5053925;28;19936;-84
2022/08/02 08:35:07;;;;;;;;;;;;;;;35.47;26.07;100553.03;5061854;28;19986;-83
2022/08/02 08:37:36;;;;;;;;;;;;;;;35.56;26.07;100553.00;5069727;28;19921;-83
2022/08/02 08:40:05;;;;;;;;;;;;;;;35.88;25.50;100540.44;5055568;28;19920;-86
2022/08/02 08:42:30;;;;;;;;;;;;;;;36.38;25.40;100555.69;5074411;28;20323;-84
2022/08/02 08:44:57;;;;;;;;;;;;;;;37.12;24.29;100550.63;5068992;28;20348;-83
2022/08/02 08:47:24;;;;;;;;;;;;;;;37.51;24.13;100548.41;5067089;28;19974;-86
2022/08/02 08:49:50;;;;;;;;;;;;;;;37.76;23.49;100543.72;5052771;28;19927;-84
2022/08/02 08:52:16;;;;;;;;;;;;;;;37.92;23.31;100541.88;5037817;28;20010;-83
2022/08/02 08:54:43;;;;;;;;;;;;;;;38.36;23.06;100542.16;5077883;28;19917;-84
2022/08/02 08:57:11;;;;;;;;;;;;;;;38.61;22.28;100545.78;5048655;28;19932;-84
2022/08/02 08:59:37;;;;;;;;;;;;;;;36.73;24.44;100538.72;5057775;28;19928;-84
2022/08/02 09:02:09;;;;;;;;;;;;;;;35.75;25.26;100547.06;5076538;28;20015;-87
2022/08/02 09:04:34;;;;;;;;;;;;;;;36.94;24.56;100558.31;5057922;28;20314;-90
2022/08/02 09:07:04;;;;;;;;;;;;;;;37.76;23.30;100546.53;5070057;28;19921;-89
2022/08/02 09:09:30;;;;;;;;;;;;;;;38.50;22.79;100543.81;5044649;28;20312;-89
2022/08/02 09:12:11;;;;;;;;;;;;;;;38.58;21.46;100534.44;5032176;28;20028;-87
2022/08/02 09:14:36;;;;;;;;;;;;;;;39.34;21.07;100543.94;5012697;28;19923;-88
2022/08/02 09:17:08;;;;;;;;;;;;;;;39.81;20.45;100534.78;5037031;28;19925;-86
2022/08/02 09:19:37;;;;;;;;;;;;;;;39.91;20.47;100533.44;5014572;28;19964;-87
2022/08/02 09:22:13;;;;;;;;;;;;;;;39.44;20.74;100531.38;5039221;28;20309;-89
2022/08/02 09:24:41;;;;;;;;;;;;;;;39.41;20.26;100530.09;5047848;28;19920;-88
2022/08/02 09:27:18;;;;;;;;;;;;;;;40.33;19.33;100527.25;5036255;28;19933;-89
2022/08/02 09:29:45;;;;;;;;;;;;;;;40.55;19.58;100527.72;5037654;28;19921;-88
2022/08/02 09:32:33;;;;;;;;;;;;;;;40.80;18.94;100522.66;5048906;28;19917;-90
2022/08/02 09:35:06;;;;;;;;;;;;;;;40.80;19.32;100534.75;5054728;28;19929;-87
2022/08/02 09:37:34;;;;;;;;;;;;;;;40.95;18.29;100535.06;5035400;28;19980;-86
2022/08/02 09:40:02;;;;;;;;;;;;;;;42.03;17.57;100533.13;5048032;28;19917;-85
2022/08/02 09:42:28;;;;;;;;;;;;;;;42.44;16.94;100535.41;5046806;28;19920;-87
2022/08/02 09:45:05;;;;;;;;;;;;;;;41.71;17.35;100524.91;5044366;28;19948;-88
2022/08/02 09:47:32;;;;;;;;;;;;;;;40.87;18.61;100529.28;5041199;28;19925;-87
2022/08/02 09:50:29;;;;;;;;;;;;;;;41.29;17.96;100533.38;5058120;28;19972;-87
2022/08/02 09:53:19;;;;;;;;;;;;;;;41.71;17.75;100521.28;5057106;28;19921;-89
2022/08/02 09:55:56;;;;;;;;;;;;;;;40.09;19.21;100522.63;5031586;28;19951;-88
2022/08/02 09:58:28;;;;;;;;;;;;;;;40.54;18.95;100531.72;5055075;28;19925;-88
2022/08/02 10:00:56;;;;;;;;;;;;;;;42.48;17.44;100514.47;5053995;28;19976;-85
2022/08/02 10:03:29;;;;;;;;;;;;;;;42.09;16.80;100520.31;5032975;28;19940;-89
2022/08/02 10:06:03;;;;;;;;;;;;;;;43.15;16.48;100527.84;5036927;28;19947;-88
2022/08/02 10:08:32;;;;;;;;;;;;;;;44.20;15.42;100522.03;5053617;28;20420;-89
2022/08/02 10:11:19;;;;;;;;;;;;;;;44.47;14.94;100507.66;5073527;28;19927;-91
2022/08/02 10:14:09;;;;;;;;;;;;;;;42.43;17.07;100526.13;5510161;22;20040;-89
2022/08/02 10:17:14;;;;;;;;;;;;;;;42.51;17.22;100512.91;5053547;28;19929;-91
2022/08/02 10:28:39;;;;;;;;;;;;;;;42.52;16.92;100517.34;5080189;28;19947;-90
2022/08/02 10:36:30;;;;;;;;;;;;;;;;;;;;;
2022/08/02 10:58:26;;;;;;;;;;;;;;;42.62;16.25;100507.41;5222760;22;19932;-93
2022/08/02 11:07:44;;;;;;;;;;;;;;;39.88;19.12;100512.47;5083580;28;19934;-95
2022/08/02 11:10:26;;;;;;;;;;;;;;;38.65;20.52;100514.97;5479838;22;19930;31
2022/08/02 11:13:41;;;;;;;;;;;;;;;38.62;20.72;100518.50;5359806;22;19913;-94
2022/08/02 11:16:10;;;;;;;;;;;;;;;38.58;20.63;100506.34;5263365;22;19919;-91
2022/08/02 11:19:08;;;;;;;;;;;;;;;37.17;22.43;100512.00;5548512;22;20243;-94
2022/08/02 11:21:38;;;;;;;;;;;;;;;35.95;23.53;100511.97;5055363;28;19909;-94
2022/08/02 11:32:35;;;;;;;;;;;;;;;36.04;23.26;100511.94;5750465;22;19922;-93
2022/08/02 11:44:06;;;;;;;;;;;;;;;34.15;26.87;100518.88;5436804;23;19973;-89
2022/08/02 11:52:27;;;;;;;;;;;;;;;34.66;25.31;100495.88;5861443;22;19924;-94
2022/08/02 12:03:21;;;;;;;;;;;;;;;34.68;25.61;100515.91;6122792;22;19923;-92
2022/08/02 12:20:01;;;;;;;;;;;;;;;34.05;26.88;100508.81;5146621;22;19929;-90
2022/08/02 12:22:53;;;;;;;;;;;;;;;33.78;27.15;100510.66;5176175;22;19927;-92
2022/08/02 12:25:42;;;;;;;;;;;;;;;33.66;27.09;100502.06;5225745;23;19951;-92
2022/08/02 12:28:18;;;;;;;;;;;;;;;34.00;26.24;100515.34;5020739;28;19952;-92
2022/08/02 12:31:06;;;;;;;;;;;;;;;34.44;26.06;100507.13;5073209;23;19929;-93
2022/08/02 12:36:35;;;;;;;;;;;;;;;34.65;25.69;100493.38;5627688;22;19931;-91
2022/08/02 12:45:18;;;;;;;;;;;;;;;35.05;25.33;100485.69;5776709;22;19926;-91
2022/08/02 12:53:29;;;;;;;;;;;;;;;33.74;26.96;100504.09;5737429;23;19936;-92
2022/08/02 12:59:11;;;;;;;;;;;;;;;33.70;26.35;100500.28;6052697;22;19945;-94
2022/08/02 13:07:28;;;;;;;;;;;;;;;32.83;26.93;100501.59;5073925;28;19911;-89
2022/08/02 13:43:11;;;;;;;;;;;;;;;32.88;27.21;100504.28;5451383;23;20433;-86
2022/08/02 13:45:38;;;;;;;;;;;;;;;32.97;27.02;100507.97;5022096;28;19921;-88
2022/08/02 13:48:05;;;;;;;;;;;;;;;32.74;27.13;100498.75;5041454;23;19931;-86
2022/08/02 13:50:38;;;;;;;;;;;;;;;32.65;26.80;100500.66;4989895;28;20406;-88
2022/08/02 13:53:07;;;;;;;;;;;;;;;32.60;27.26;100504.38;4994270;28;19936;-88
2022/08/02 13:55:32;;;;;;;;;;;;;;;32.49;27.50;100497.34;4972060;28;19948;-89
2022/08/02 13:57:58;;;;;;;;;;;;;;;32.37;27.90;100495.91;4982411;28;20409;-87
2022/08/02 14:00:25;;;;;;;;;;;;;;;32.20;28.11;100501.31;4977533;28;19922;-87
2022/08/02 14:02:50;;;;;;;;;;;;;;;32.12;28.28;100494.53;4967506;28;20005;-88
2022/08/02 14:05:15;;;;;;;;;;;;;;;32.19;28.57;100499.63;4991384;28;19922;-89
2022/08/02 14:07:41;;;;;;;;;;;;;;;32.30;28.60;100501.06;4957139;28;20018;-89
2022/08/02 14:10:06;;;;;;;;;;;;;;;32.44;28.59;100506.63;4982633;28;19922;-89
2022/08/02 14:12:33;;;;;;;;;;;;;;;32.52;28.05;100497.59;4981203;28;20017;-88
2022/08/02 14:14:58;;;;;;;;;;;;;;;32.40;27.96;100497.25;4977952;28;19927;-90
2022/08/02 14:17:24;;;;;;;;;;;;;;;32.24;28.05;100505.13;4980145;28;19922;-90
2022/08/02 14:19:51;;;;;;;;;;;;;;;32.21;28.17;100502.13;4978128;28;19936;-90
2022/08/02 14:22:17;;;;;;;;;;;;;;;32.26;28.01;100507.56;4981001;28;19926;-90
2022/08/02 14:24:45;;;;;;;;;;;;;;;31.83;28.25;100503.13;4973410;28;19957;-88
2022/08/02 14:27:14;;;;;;;;;;;;;;;31.81;28.41;100504.56;4974620;28;19930;-88
2022/08/02 14:29:40;;;;;;;;;;;;;;;31.82;28.55;100506.19;4968773;28;19918;-90
2022/08/02 14:32:07;;;;;;;;;;;;;;;31.70;28.58;100510.31;4967828;28;20284;-87
2022/08/02 14:34:32;;;;;;;;;;;;;;;31.74;28.74;100508.56;4960660;28;19985;-87
2022/08/02 14:36:57;;;;;;;;;;;;;;;31.85;28.34;100500.84;4962738;28;19984;-90
2022/08/02 14:39:23;;;;;;;;;;;;;;;31.89;28.46;100501.03;4976800;28;19929;-87
2022/08/02 14:41:48;;;;;;;;;;;;;;;31.84;28.32;100509.50;4978558;28;19934;-87
2022/08/02 14:44:15;;;;;;;;;;;;;;;31.74;28.42;100511.34;4975604;28;19933;-87
2022/08/02 14:46:42;;;;;;;;;;;;;;;31.68;28.38;100506.16;4970731;28;19926;-89
2022/08/02 14:49:09;;;;;;;;;;;;;;;31.73;28.56;100504.13;4978775;28;19933;-89
2022/08/02 14:51:35;;;;;;;;;;;;;;;32.00;28.21;100513.66;4974795;28;20324;-86
2022/08/02 14:54:00;;;;;;;;;;;;;;;31.94;27.97;100512.09;4976650;28;20017;-88
2022/08/02 14:56:26;;;;;;;;;;;;;;;31.87;28.31;100511.69;4979620;28;19953;-89
2022/08/02 14:58:51;;;;;;;;;;;;;;;31.91;28.13;100507.13;4988965;28;20112;-87
2022/08/02 15:01:19;;;;;;;;;;;;;;;31.84;27.96;100506.72;4975813;28;20041;-88
2022/08/02 15:03:44;;;;;;;;;;;;;;;31.68;28.52;100495.91;4978666;28;20378;-89
2022/08/02 15:06:09;;;;;;;;;;;;;;;31.59;28.01;100508.84;4978591;28;19929;-86
2022/08/02 15:08:38;;;;;;;;;;;;;;;31.43;30.17;100521.38;4976255;28;20401;-87
2022/08/02 15:11:11;;;;;;;;;;;;;;;31.24;35.67;100513.88;4977072;28;19926;-86
2022/08/02 15:13:36;;;;;;;;;;;;;;;30.68;43.33;100523.84;4976277;28;19961;-90
2022/08/02 15:16:08;;;;;;;;;;;;;;;30.44;46.25;100525.84;4987532;28;19933;-87
2022/08/02 15:21:36;;;;;;;;;;;;;;;29.83;48.25;100519.88;5238340;23;19936;-89
2022/08/02 15:24:03;;;;;;;;;;;;;;;29.78;48.46;100527.41;5006626;28;19926;-87
2022/08/02 15:26:31;;;;;;;;;;;;;;;29.18;49.91;100513.81;5012742;28;19920;-89